Time;durP1;ratioP1;P1;durP2;ratioP2;P2;SDS_P1;SDS_P2;PMS_P1;PMS_P2;Temp;Humidity;BMP_temperature;BMP_pressure;BME280_temperature;BME280_humidity;BME280_pressure;Samples;Min_cycle;Max_cycle;Signal;HPM_P1;HPM_P2
2021/08/15 00:00:22;;;;;;;35.35;20.98;;;15.40;99.90;;;16.66;97.70;100718.28;6162303;23;20012;-87
2021/08/15 00:02:49;;;;;;;37.47;22.02;;;15.40;99.90;;;16.66;98.09;100717.50;6163615;23;20013;-87
2021/08/15 00:05:15;;;;;;;32.42;21.65;;;15.40;99.90;;;16.68;97.71;100709.44;6189259;23;20020;-87
2021/08/15 00:07:41;;;;;;;37.13;21.13;;;15.40;99.90;;;16.67;97.85;100705.00;6187512;23;20012;-86
2021/08/15 00:10:08;;;;;;;32.97;21.95;;;15.40;99.90;;;16.66;97.85;100701.38;6189541;23;20005;-86
2021/08/15 00:12:36;;;;;;;34.58;22.17;;;15.40;99.90;;;16.67;98.15;100707.81;6189188;23;20001;-84
2021/08/15 00:15:04;;;;;;;37.30;21.80;;;15.40;99.90;;;16.66;98.25;100700.59;6186980;23;20056;-86
2021/08/15 00:17:30;;;;;;;40.47;22.45;;;15.40;99.90;;;16.67;97.81;100710.66;6187480;23;20032;-85
2021/08/15 00:19:56;;;;;;;34.80;21.50;;;15.30;99.90;;;16.62;98.12;100702.59;6163550;23;20009;-85
2021/08/15 00:22:22;;;;;;;39.25;21.60;;;15.30;99.90;;;16.59;97.93;100698.56;6162736;23;20012;-87
2021/08/15 00:24:48;;;;;;;32.97;21.40;;;15.30;99.90;;;16.56;97.68;100695.72;6162312;23;20009;-86
2021/08/15 00:27:30;;;;;;;32.00;19.65;;;15.20;99.90;;;16.52;97.83;100698.50;6190578;23;20009;-86
2021/08/15 00:29:59;;;;;;;33.88;19.60;;;15.20;99.90;;;16.44;98.03;100691.19;6165230;23;20088;-87
2021/08/15 00:32:25;;;;;;;31.88;19.75;;;15.10;99.90;;;16.33;98.01;100688.34;6188517;23;20036;-88
2021/08/15 00:34:51;;;;;;;29.98;18.02;;;15.00;99.90;;;16.26;98.29;100681.88;6189041;23;20012;-88
2021/08/15 00:37:17;;;;;;;31.50;18.27;;;15.00;99.90;;;16.21;98.90;100690.72;6164142;23;20005;-87
2021/08/15 00:39:43;;;;;;;36.42;21.60;;;14.90;99.90;;;16.16;99.48;100680.63;6163182;23;20005;-85
2021/08/15 00:42:09;;;;;;;33.30;18.88;;;14.90;99.90;;;16.16;99.53;100691.06;6186714;23;20059;-85
2021/08/15 00:44:37;;;;;;;29.33;19.20;;;14.80;99.90;;;16.17;99.62;100692.69;6188058;23;20013;-87
2021/08/15 00:47:06;;;;;;;33.38;18.25;;;14.80;99.90;;;16.14;99.76;100683.03;6189943;23;20005;-86
2021/08/15 00:49:32;;;;;;;33.22;20.45;;;14.80;99.90;;;16.12;99.88;100684.59;6212145;23;20047;-87
2021/08/15 00:51:58;;;;;;;33.72;20.10;;;14.80;99.90;;;16.05;100.00;100676.16;6212613;23;20005;-87
2021/08/15 00:54:24;;;;;;;37.33;20.08;;;14.80;99.90;;;16.04;100.00;100668.88;6212558;23;20386;-85
2021/08/15 00:56:54;;;;;;;32.53;19.92;;;14.70;99.90;;;16.03;100.00;100668.06;6212769;23;20033;-84
2021/08/15 00:59:21;;;;;;;31.90;18.90;;;14.70;99.90;;;16.03;100.00;100679.34;6188478;23;20005;-87
2021/08/15 01:01:54;;;;;;;33.38;20.77;;;14.80;99.90;;;16.06;100.00;100670.09;6214546;23;20031;-86
2021/08/15 01:04:27;;;;;;;39.83;20.90;;;14.80;99.90;;;16.04;100.00;100668.88;6214251;23;20009;-87
2021/08/15 01:06:53;;;;;;;33.10;19.02;;;14.70;99.90;;;16.08;100.00;100664.09;6213529;23;20013;-87
2021/08/15 01:09:22;;;;;;;39.90;20.88;;;14.80;99.90;;;16.06;100.00;100666.47;6214860;23;20012;-86
2021/08/15 01:11:49;;;;;;;28.58;18.45;;;14.70;99.90;;;16.09;100.00;100652.41;6214543;23;20005;-86
2021/08/15 01:14:16;;;;;;;33.72;19.75;;;14.70;99.90;;;16.09;100.00;100649.59;6190517;23;20068;-88
2021/08/15 01:16:44;;;;;;;32.50;19.45;;;14.80;99.90;;;16.10;100.00;100642.75;6216080;23;20012;-87
2021/08/15 01:19:12;;;;;;;29.60;18.98;;;14.80;99.90;;;16.11;100.00;100658.47;6217815;23;20015;-88
2021/08/15 01:21:39;;;;;;;27.65;18.48;;;14.70;99.90;;;16.09;100.00;100645.97;6217813;23;20072;-87
2021/08/15 01:24:09;;;;;;;31.35;18.55;;;14.70;99.90;;;16.13;100.00;100643.97;6214771;23;20036;-85
2021/08/15 01:26:37;;;;;;;31.90;18.40;;;14.70;99.90;;;16.14;100.00;100648.41;6189751;23;20020;-84
2021/08/15 01:29:03;;;;;;;30.65;18.30;;;14.70;99.90;;;16.15;100.00;100639.53;6215569;23;20008;-87
2021/08/15 01:31:29;;;;;;;31.02;20.23;;;14.80;99.90;;;16.13;100.00;100632.69;6229315;23;20021;-84
2021/08/15 01:33:55;;;;;;;35.28;19.52;;;14.80;99.90;;;16.11;100.00;100637.94;6228610;23;20024;-83
2021/08/15 01:36:22;;;;;;;33.75;19.05;;;14.70;99.90;;;16.13;100.00;100639.16;6213662;23;20008;-86
2021/08/15 01:38:51;;;;;;;28.13;17.25;;;14.80;99.90;;;16.13;100.00;100638.34;6213324;23;20005;-84
2021/08/15 01:41:18;;;;;;;28.92;18.75;;;14.70;99.90;;;16.05;100.00;100637.50;6211644;23;20016;-86
2021/08/15 01:44:02;;;;;;;33.92;19.77;;;14.70;99.90;;;16.02;100.00;100640.31;6212187;23;20562;-87
2021/08/15 01:46:32;;;;;;;28.90;18.35;;;14.60;99.90;;;15.99;100.00;100636.25;6190668;23;20005;-84
2021/08/15 01:49:02;;;;;;;31.27;19.20;;;14.60;99.90;;;15.97;100.00;100635.84;6214716;23;20020;-85
2021/08/15 01:51:30;;;;;;;30.92;18.13;;;14.60;99.90;;;15.95;100.00;100645.91;6213988;23;20009;-86
2021/08/15 01:54:00;;;;;;;31.98;18.23;;;14.60;99.90;;;15.90;100.00;100643.44;6213758;23;20063;-85
2021/08/15 01:56:26;;;;;;;27.83;17.70;;;14.50;99.90;;;15.86;100.00;100639.81;6214093;23;20013;-86
2021/08/15 01:58:53;;;;;;;34.53;20.77;;;14.50;99.90;;;15.83;100.00;100638.59;6213994;23;20113;-87
2021/08/15 02:01:21;;;;;;;33.65;20.23;;;14.50;99.90;;;15.81;100.00;100633.34;6213865;23;20378;-85
2021/08/15 02:03:52;;;;;;;29.02;18.85;;;14.50;99.90;;;15.81;100.00;100629.72;6214094;23;20037;-84
2021/08/15 02:06:18;;;;;;;30.92;18.27;;;14.40;99.90;;;15.77;100.00;100626.09;6189222;23;20067;-85
2021/08/15 02:08:48;;;;;;;31.60;19.27;;;14.40;99.90;;;15.71;100.00;100625.66;6213795;23;20036;-86
2021/08/15 02:11:15;;;;;;;31.42;18.42;;;14.40;99.90;;;15.70;100.00;100621.22;6213016;23;20015;-86
2021/08/15 02:13:41;;;;;;;31.70;19.92;;;14.30;99.90;;;15.74;100.00;100621.25;6190163;23;20028;-84
2021/08/15 02:16:07;;;;;;;30.83;19.20;;;14.30;99.90;;;15.75;100.00;100612.41;6188953;23;20005;-87
2021/08/15 02:18:33;;;;;;;34.35;20.13;;;14.30;99.90;;;15.69;100.00;100614.00;6213837;23;20376;-83
2021/08/15 02:20:59;;;;;;;34.20;19.42;;;14.30;99.90;;;15.65;100.00;100604.72;6214374;23;20016;-84
2021/08/15 02:23:25;;;;;;;26.88;17.98;;;14.30;99.90;;;15.59;100.00;100606.28;6214833;23;20017;-86
2021/08/15 02:25:53;;;;;;;27.67;18.38;;;14.20;99.90;;;15.55;100.00;100611.06;6214737;23;20436;-88
2021/08/15 02:28:20;;;;;;;32.13;19.17;;;14.10;99.90;;;15.47;100.00;100606.59;6214432;23;20009;-87
2021/08/15 02:30:46;;;;;;;29.45;17.92;;;14.10;99.90;;;15.42;100.00;100603.31;6188762;23;20013;-85
2021/08/15 02:33:11;;;;;;;31.73;18.33;;;14.10;99.90;;;15.36;100.00;100611.31;6213810;23;20011;-85
2021/08/15 02:35:38;;;;;;;33.13;19.38;;;14.00;99.90;;;15.29;100.00;100605.63;6214258;23;20005;-86
2021/08/15 02:38:05;;;;;;;29.50;18.42;;;13.90;99.90;;;15.25;100.00;100596.38;6213964;23;20005;-86
2021/08/15 02:40:31;;;;;;;34.28;19.50;;;13.90;99.90;;;15.23;100.00;100602.38;6214018;23;20035;-86
2021/08/15 02:43:06;;;;;;;31.02;19.60;;;13.90;99.90;;;15.24;100.00;100594.75;6215437;23;20407;-90
2021/08/15 02:45:32;;;;;;;35.60;20.80;;;13.90;99.90;;;15.23;100.00;100596.75;6214838;23;20009;-85
2021/08/15 02:47:59;;;;;;;33.22;19.75;;;13.80;99.90;;;15.23;100.00;100593.13;6213857;23;20009;-86
2021/08/15 02:50:26;;;;;;;36.88;20.05;;;13.80;99.90;;;15.22;100.00;100586.69;6213791;23;20108;-85
2021/08/15 02:52:52;;;;;;;31.30;19.13;;;13.80;99.90;;;15.26;100.00;100586.72;6213744;23;20005;-84
2021/08/15 02:55:18;;;;;;;37.55;21.55;;;13.90;99.90;;;15.25;100.00;100585.91;6214074;23;20016;-86
2021/08/15 02:57:44;;;;;;;32.20;19.35;;;13.90;99.90;;;15.24;100.00;100583.50;6214599;23;20012;-84
2021/08/15 03:00:12;;;;;;;28.50;18.83;;;13.80;99.90;;;15.21;100.00;100578.66;6214274;23;20105;-86
2021/08/15 03:02:39;;;;;;;31.50;18.67;;;13.80;99.90;;;15.18;100.00;100571.81;6189399;23;20009;-87
2021/08/15 03:05:08;;;;;;;33.67;19.67;;;13.80;99.90;;;15.21;100.00;100570.22;6214472;23;20324;-87
2021/08/15 03:07:35;;;;;;;33.60;19.27;;;13.90;99.90;;;15.22;100.00;100564.19;6214204;23;20009;-87
2021/08/15 03:10:00;;;;;;;35.90;20.60;;;13.80;99.90;;;15.20;100.00;100568.59;6214140;23;20091;-86
2021/08/15 03:12:26;;;;;;;31.88;19.63;;;13.80;99.90;;;15.15;100.00;100571.78;6214792;23;20052;-86
2021/08/15 03:14:52;;;;;;;29.55;19.50;;;13.80;99.90;;;15.12;100.00;100564.91;6214704;23;20075;-85
2021/08/15 03:17:18;;;;;;;30.90;20.30;;;13.70;99.90;;;15.13;100.00;100554.47;6215297;23;20009;-86
2021/08/15 03:19:44;;;;;;;34.75;21.17;;;13.80;99.90;;;15.17;100.00;100550.50;6214992;23;20028;-87
2021/08/15 03:22:10;;;;;;;39.85;23.75;;;13.80;99.90;;;15.27;100.00;100546.97;6214859;23;20335;-86
2021/08/15 03:24:36;;;;;;;38.67;21.63;;;13.90;99.90;;;15.39;100.00;100548.63;6189588;23;20453;-86
2021/08/15 03:27:03;;;;;;;30.98;19.73;;;14.00;99.90;;;15.46;100.00;100540.22;6215454;23;20001;-87
2021/08/15 03:29:29;;;;;;;40.17;20.85;;;14.10;99.90;;;15.43;100.00;100535.38;6215604;23;20016;-85
2021/08/15 03:31:55;;;;;;;32.85;19.88;;;14.10;99.90;;;15.50;100.00;100540.28;6216221;23;20020;-88
2021/08/15 03:34:22;;;;;;;33.65;20.58;;;14.10;99.90;;;15.52;100.00;100543.50;6216652;23;20076;-88
2021/08/15 03:36:50;;;;;;;28.48;18.08;;;14.10;99.90;;;15.51;100.00;100544.72;6193221;23;20024;-88
2021/08/15 03:39:17;;;;;;;30.67;19.65;;;14.10;99.90;;;15.47;100.00;100541.84;6218038;23;20009;-89
2021/08/15 03:41:56;;;;;;;25.90;18.30;;;14.10;99.90;;;15.42;100.00;100541.38;6218364;23;20009;-88
2021/08/15 03:44:22;;;;;;;27.30;17.63;;;14.00;99.90;;;15.36;100.00;100542.97;6221658;23;20009;-86
2021/08/15 03:46:47;;;;;;;29.30;18.00;;;14.00;99.90;;;15.30;100.00;100539.72;6235988;23;19997;-87
2021/08/15 03:49:14;;;;;;;29.00;17.73;;;13.90;99.90;;;15.22;100.00;100538.88;6167848;23;20005;-84
2021/08/15 03:51:40;;;;;;;30.67;18.33;;;13.90;99.90;;;15.20;100.00;100532.03;6163910;23;20009;-88
2021/08/15 03:54:06;;;;;;;27.35;17.08;;;13.80;99.90;;;15.13;100.00;100544.03;6188671;23;20032;-88
2021/08/15 03:56:32;;;;;;;27.48;18.13;;;13.80;99.90;;;15.06;100.00;100534.72;6164961;23;20013;-84
2021/08/15 03:58:59;;;;;;;30.67;17.98;;;13.70;99.90;;;15.01;100.00;100538.72;6165204;23;20005;-85
2021/08/15 04:01:25;;;;;;;29.27;18.40;;;13.70;99.90;;;14.98;100.00;100533.88;6189032;23;20067;-84
2021/08/15 04:03:50;;;;;;;36.58;19.52;;;13.70;99.90;;;15.03;100.00;100527.88;6163833;23;20009;-84
2021/08/15 04:06:21;;;;;;;26.30;18.83;;;13.70;99.90;;;15.06;100.00;100527.09;6163769;23;20058;-85
2021/08/15 04:08:51;;;;;;;29.65;18.30;;;13.70;99.90;;;15.06;100.00;100526.28;6188072;23;20005;-85
2021/08/15 04:11:19;;;;;;;31.33;19.33;;;13.70;99.90;;;15.08;100.00;100524.72;6188117;23;20063;-84
2021/08/15 04:13:46;;;;;;;31.77;19.60;;;13.70;99.90;;;15.13;100.00;100524.34;6187296;23;20027;-84
2021/08/15 04:16:13;;;;;;;31.75;19.95;;;13.80;99.90;;;15.15;100.00;100527.59;6187915;23;20012;-87
2021/08/15 04:18:39;;;;;;;36.58;20.35;;;13.80;99.90;;;15.18;100.00;100528.81;6162823;23;20008;-84
2021/08/15 04:21:05;;;;;;;30.45;18.52;;;13.80;99.90;;;15.23;100.00;100522.81;6163256;23;20416;-83
2021/08/15 04:23:32;;;;;;;35.40;20.40;;;13.90;99.90;;;15.27;100.00;100509.56;6188381;23;20058;-87
2021/08/15 04:25:59;;;;;;;36.72;20.42;;;13.90;99.90;;;15.35;100.00;100516.84;6164432;23;20008;-87
2021/08/15 04:28:25;;;;;;;35.78;21.42;;;13.90;99.90;;;15.43;100.00;100515.69;6188417;23;20080;-82
2021/08/15 04:30:53;;;;;;;37.05;21.52;;;14.00;99.90;;;15.57;100.00;100518.59;6190977;23;20005;-87
2021/08/15 04:33:21;;;;;;;39.72;22.23;;;14.10;99.90;;;15.72;100.00;100520.28;6189299;23;20005;-87
2021/08/15 04:35:47;;;;;;;35.03;21.52;;;14.30;99.90;;;15.83;100.00;100515.47;6189246;23;20060;-87
2021/08/15 04:38:13;;;;;;;30.92;20.33;;;14.40;99.90;;;15.94;99.45;100515.53;6189281;23;20067;-90
2021/08/15 04:40:39;;;;;;;35.65;20.98;;;14.50;99.90;;;16.00;98.83;100518.75;6189087;23;20386;-86
2021/08/15 04:43:05;;;;;;;30.48;18.50;;;14.60;99.90;;;16.03;98.72;100512.31;6164258;23;20009;-87
2021/08/15 04:45:31;;;;;;;30.20;19.95;;;14.60;99.90;;;16.05;98.13;100524.81;6188818;23;20443;-86
2021/08/15 04:47:56;;;;;;;36.45;21.13;;;14.60;99.90;;;16.08;97.73;100518.41;6187956;23;20024;-88
2021/08/15 04:50:22;;;;;;;31.08;20.75;;;14.60;99.90;;;16.12;97.54;100513.56;6187838;23;20009;-87
2021/08/15 04:52:48;;;;;;;34.78;20.92;;;14.70;99.90;;;16.17;97.36;100516.00;6188569;23;20001;-88
2021/08/15 04:55:14;;;;;;;30.27;20.30;;;14.70;99.90;;;16.22;97.16;100521.22;6162636;23;20028;-86
2021/08/15 04:57:40;;;;;;;32.35;19.10;;;14.80;99.90;;;16.24;97.31;100524.47;6189311;23;20008;-87
2021/08/15 05:00:06;;;;;;;31.50;19.75;;;14.80;99.90;;;16.25;97.20;100525.25;6163744;23;20016;-88
2021/08/15 05:02:32;;;;;;;31.38;21.63;;;14.80;99.90;;;16.29;97.13;100524.06;6188780;23;20001;-85
2021/08/15 05:04:59;;;;;;;36.60;20.52;;;14.80;99.90;;;16.40;96.70;100534.56;6189085;23;20005;-87
2021/08/15 05:07:25;;;;;;;31.60;19.02;;;14.90;99.90;;;16.49;96.18;100529.31;6187881;23;20096;-86
2021/08/15 05:09:50;;;;;;;37.45;22.35;;;15.00;99.90;;;16.54;95.30;100529.72;6163124;23;20005;-85
2021/08/15 05:12:16;;;;;;;36.53;21.45;;;15.10;99.90;;;16.67;94.96;100524.53;6161695;23;20005;-88
2021/08/15 05:14:42;;;;;;;34.58;20.80;;;15.10;99.90;;;16.81;94.31;100516.06;6163530;23;20012;-85
2021/08/15 05:17:08;;;;;;;31.20;18.58;;;15.20;99.90;;;16.91;94.02;100517.28;6162160;23;20009;-85
2021/08/15 05:19:35;;;;;;;33.40;19.77;;;15.30;99.90;;;17.04;93.94;100516.47;6187829;23;20096;-86
2021/08/15 05:22:00;;;;;;;30.42;19.35;;;15.50;99.90;;;17.15;93.63;100522.06;6165033;23;20020;-88
2021/08/15 05:24:26;;;;;;;32.50;20.10;;;15.60;99.90;;;17.25;93.28;100522.06;6191018;23;20005;-86
2021/08/15 05:26:52;;;;;;;41.00;21.83;;;15.80;99.90;;;17.35;92.81;100518.41;6189094;23;20063;-85
2021/08/15 05:29:18;;;;;;;33.95;21.10;;;15.90;99.90;;;17.57;92.26;100521.19;6164774;23;20009;-90
2021/08/15 05:31:44;;;;;;;32.60;19.98;;;16.10;99.90;;;17.83;91.81;100515.84;6165288;23;20037;-89
2021/08/15 05:34:10;;;;;;;33.22;20.20;;;16.30;99.90;;;18.02;90.64;100520.19;6190039;23;20060;-87
2021/08/15 05:36:36;;;;;;;28.10;19.48;;;16.50;99.90;;;18.21;90.37;100528.16;6164558;23;20008;-86
2021/08/15 05:39:01;;;;;;;33.83;20.33;;;16.60;99.90;;;18.42;89.92;100530.88;6165176;23;20083;-89
2021/08/15 05:41:27;;;;;;;32.65;19.38;;;16.90;99.90;;;18.77;89.00;100537.50;6165071;23;20489;-88
2021/08/15 05:43:53;;;;;;;30.25;17.88;;;17.10;99.90;;;18.96;87.35;100525.63;6193040;23;20009;-89
2021/08/15 05:46:19;;;;;;;28.00;16.70;;;17.30;99.90;;;19.20;86.74;100521.72;6192610;23;20013;-86
2021/08/15 05:48:45;;;;;;;34.58;19.40;;;17.40;99.90;;;19.24;85.59;100527.34;6192700;23;20013;-85
2021/08/15 05:51:11;;;;;;;30.10;18.17;;;17.60;99.90;;;19.35;85.23;100523.22;6167032;23;20411;-86
2021/08/15 05:53:37;;;;;;;32.00;18.58;;;17.70;99.90;;;19.55;84.53;100526.25;6167225;23;20012;-85
2021/08/15 05:56:03;;;;;;;29.17;17.20;;;17.80;99.90;;;19.81;82.93;100521.91;6166534;23;20339;-85
2021/08/15 05:58:29;;;;;;;28.88;16.35;;;18.10;99.90;;;19.99;82.13;100505.47;6191680;23;20431;-84
2021/08/15 06:00:55;;;;;;;28.38;17.25;;;18.30;99.90;;;20.06;81.56;100507.41;6187525;23;20025;-83
2021/08/15 06:03:21;;;;;;;31.65;16.67;;;18.50;99.90;;;20.17;81.19;100505.19;6197265;23;20016;-85
2021/08/15 06:05:47;;;;;;;26.40;16.30;;;18.60;99.90;;;20.40;80.12;100508.13;6193407;23;20013;-88
2021/08/15 06:08:15;;;;;;;27.55;16.55;;;18.70;99.90;;;20.32;79.87;100504.63;6167197;23;20009;-88
2021/08/15 06:10:41;;;;;;;27.10;15.48;;;18.80;99.90;;;20.27;80.33;100505.09;6190265;23;20040;-87
2021/08/15 06:13:09;;;;;;;23.83;15.45;;;18.80;99.90;;;20.38;80.27;100510.59;6188386;23;20009;-87
2021/08/15 06:15:36;;;;;;;26.65;16.15;;;18.80;99.90;;;20.38;80.10;100502.91;6190507;23;20011;-88
2021/08/15 06:18:02;;;;;;;26.20;15.48;;;18.80;99.90;;;20.18;81.58;100498.31;6188923;23;20011;-87
2021/08/15 06:20:28;;;;;;;24.15;14.35;;;18.70;99.90;;;20.17;81.17;100491.03;6189775;23;20454;-84
2021/08/15 06:22:54;;;;;;;21.25;13.52;;;18.70;99.90;;;20.08;82.43;100480.22;6190048;23;20005;-85
2021/08/15 06:25:20;;;;;;;22.42;13.80;;;18.70;99.90;;;20.17;81.72;100482.50;6190675;23;20012;-86
2021/08/15 06:27:46;;;;;;;21.50;13.20;;;18.70;99.90;;;20.21;82.22;100481.25;6188783;23;20009;-88
2021/08/15 06:30:17;;;;;;;23.27;13.20;;;18.80;99.90;;;20.34;81.42;100476.63;6188051;23;20009;-87
2021/08/15 06:32:52;;;;;;;19.20;12.32;;;18.90;99.90;;;20.50;81.46;100475.97;6190405;23;20005;-86
2021/08/15 06:35:26;;;;;;;29.05;14.25;;;19.00;99.90;;;20.75;80.06;100473.50;6189879;23;20001;-85
2021/08/15 06:37:54;;;;;;;18.73;11.85;;;19.20;99.90;;;20.88;79.62;100476.53;6188713;23;20001;-87
2021/08/15 06:40:28;;;;;;;25.23;12.23;;;19.40;99.90;;;21.28;78.42;100474.59;6191089;23;20009;-85
2021/08/15 06:43:05;;;;;;;23.02;11.82;;;19.70;99.90;;;21.39;78.50;100472.34;6189261;23;20386;-87
2021/08/15 06:45:31;;;;;;;17.83;10.90;;;19.90;99.90;;;21.95;76.92;100470.38;6190955;23;20115;-86
2021/08/15 06:47:57;;;;;;;19.13;10.95;;;20.30;99.90;;;22.10;74.76;100476.53;6190410;23;20013;-89
2021/08/15 06:50:23;;;;;;;21.35;10.40;;;20.40;99.90;;;22.16;73.17;100475.59;6162865;23;20020;-85
2021/08/15 06:52:50;;;;;;;19.02;10.52;;;20.60;99.90;;;22.11;73.45;100473.28;6187912;23;20005;-86
2021/08/15 06:55:16;;;;;;;17.08;9.70;;;20.70;99.90;;;22.22;73.59;100475.88;6189929;23;20005;-87
2021/08/15 06:57:42;;;;;;;18.30;9.80;;;20.70;99.90;;;22.60;72.08;100474.16;6189010;23;20055;-88
2021/08/15 07:00:09;;;;;;;17.02;9.75;;;21.00;99.90;;;22.90;70.21;100475.81;6162751;23;20009;-88
2021/08/15 07:02:43;;;;;;;14.30;8.10;;;21.30;99.90;;;23.53;69.30;100471.28;6196537;23;20001;-86
2021/08/15 07:05:10;;;;;;;16.50;8.43;;;21.60;99.90;;;23.47;67.97;100475.91;6172711;23;20005;-84
2021/08/15 07:07:39;;;;;;;14.52;8.18;;;21.80;99.90;;;23.89;67.72;100467.38;6198470;23;20035;-85
2021/08/15 07:10:10;;;;;;;14.27;6.97;;;22.10;99.90;;;23.84;66.67;100471.56;6174557;23;20005;-83
2021/08/15 07:12:39;;;;;;;13.93;7.60;;;22.10;99.90;;;23.65;68.28;100478.25;6167747;23;20016;-88
2021/08/15 07:18:00;;;;;;;12.95;6.85;;;22.00;99.90;;;23.46;68.18;100470.66;6185051;23;20012;-87
2021/08/15 07:20:27;;;;;;;12.35;6.22;;;22.00;99.90;;;23.55;67.03;100468.78;6189093;23;20095;-85
2021/08/15 07:22:58;;;;;;;14.25;6.03;;;22.10;99.90;;;23.50;66.53;100472.16;6165120;23;20071;-87
2021/08/15 07:25:28;;;;;;;9.75;6.00;;;22.00;99.90;;;23.80;66.39;100464.38;6187479;23;20067;-87
2021/08/15 07:27:56;;;;;;;11.18;6.35;;;22.10;99.90;;;23.76;65.51;100458.00;6191006;23;20005;-87
2021/08/15 07:30:25;;;;;;;14.23;5.78;;;22.20;99.90;;;24.26;65.66;100465.84;6162981;23;20013;-87
2021/08/15 07:33:02;;;;;;;8.73;5.40;;;22.40;99.90;;;24.85;62.26;100453.72;6189113;23;20020;-85
2021/08/15 07:35:31;;;;;;;10.43;5.90;;;22.80;99.90;;;25.16;61.41;100464.00;6189583;23;20008;-87
2021/08/15 07:37:58;;;;;;;12.23;5.72;;;23.20;99.90;;;25.05;60.14;100449.28;6189941;23;20005;-87
2021/08/15 07:40:25;;;;;;;13.10;6.03;;;23.30;99.90;;;24.99;60.70;100462.56;6191158;23;20013;-85
2021/08/15 07:42:54;;;;;;;12.88;6.40;;;23.40;99.90;;;25.48;60.34;100462.03;6190035;23;20068;-84
2021/08/15 07:45:32;;;;;;;12.05;5.50;;;23.70;99.90;;;25.73;58.31;100459.06;6189160;23;20478;-86
2021/08/15 07:47:59;;;;;;;11.75;5.28;;;24.00;99.90;;;25.86;57.83;100453.28;6202883;23;20439;-86
2021/08/15 07:50:34;;;;;;;12.55;5.60;;;24.20;99.90;;;26.35;56.91;100451.34;6214739;23;20013;-85
2021/08/15 07:52:59;;;;;;;9.48;4.85;;;24.50;99.90;;;26.84;55.18;100448.50;6215635;23;20009;-84
2021/08/15 07:55:25;;;;;;;10.07;5.38;;;24.80;99.90;;;26.50;54.84;100452.34;6214665;23;20005;-86
2021/08/15 07:57:51;;;;;;;11.30;5.20;;;24.80;99.90;;;26.37;56.03;100454.50;6191433;23;20005;-85
2021/08/15 08:00:17;;;;;;;9.82;5.07;;;24.80;99.90;;;26.51;54.87;100450.28;6215676;23;20036;-86
2021/08/15 08:02:43;;;;;;;9.10;4.85;;;25.00;99.90;;;26.36;55.32;100450.03;6192649;23;20016;-86
2021/08/15 08:05:09;;;;;;;8.40;5.13;;;25.00;99.90;;;26.15;55.21;100445.16;6215997;23;20009;-85
2021/08/15 08:07:36;;;;;;;8.98;5.35;;;25.00;99.90;;;26.54;55.31;100437.88;6215848;23;20024;-85
2021/08/15 08:10:03;;;;;;;10.30;4.97;;;25.00;99.90;;;26.49;55.60;100436.41;6191155;23;20009;-88
2021/08/15 08:12:43;;;;;;;13.18;5.07;;;25.10;99.90;;;26.63;54.48;100441.56;6214719;23;20060;-88
2021/08/15 08:15:09;;;;;;;8.68;5.00;;;25.10;99.90;;;26.56;54.62;100441.03;6228325;23;20012;-87
2021/08/15 08:17:37;;;;;;;9.82;4.72;;;25.00;99.90;;;26.24;55.78;100435.84;6228813;23;20007;-89
2021/08/15 08:20:08;;;;;;;7.80;4.82;;;24.80;99.90;;;26.49;55.17;100441.38;6217434;23;20068;-86
2021/08/15 08:22:35;;;;;;;9.82;5.20;;;24.80;99.90;;;26.00;56.12;100436.34;6218265;23;20001;-91
2021/08/15 08:25:14;;;;;;;10.38;4.80;;;24.70;99.90;;;26.28;56.11;100427.91;6195716;23;20005;-90
2021/08/15 08:27:48;;;;;;;8.95;4.70;;;24.70;99.90;;;26.79;55.80;100425.34;6219571;23;20005;-86
2021/08/15 08:30:15;;;;;;;10.48;4.75;;;25.00;99.90;;;26.55;55.88;100423.06;6193634;23;20135;-87
2021/08/15 08:32:56;;;;;;;7.97;4.28;;;25.10;99.90;;;26.79;56.03;100425.34;6216320;23;20001;-86
2021/08/15 08:35:37;;;;;;;9.18;4.25;;;25.10;99.90;;;26.92;55.04;100418.25;6216317;23;20091;-88
2021/08/15 08:38:20;;;;;;;7.93;4.03;;;25.20;99.90;;;26.78;54.06;100418.03;6190121;23;20011;-90
2021/08/15 08:41:02;;;;;;;9.07;3.92;;;25.10;99.90;;;26.90;53.81;100409.34;6216021;23;20035;-86
2021/08/15 08:43:31;;;;;;;9.45;3.95;;;25.10;99.90;;;26.75;54.44;100413.25;6186419;23;20012;-87
2021/08/15 08:46:45;;;;;;;10.25;4.05;;;25.00;99.90;;;26.48;54.52;100406.19;6213292;23;20021;-89
2021/08/15 08:49:42;;;;;;;10.18;3.85;;;25.00;99.90;;;26.13;54.83;100410.50;6185469;23;20099;-87
2021/08/15 08:52:11;;;;;;;7.85;3.53;;;24.80;99.90;;;26.66;55.31;100394.78;6185145;23;20447;-88
2021/08/15 08:54:37;;;;;;;8.60;3.78;;;25.10;99.90;;;27.57;54.48;100403.44;6189236;23;20023;-87
2021/08/15 08:57:04;;;;;;;8.00;3.95;;;25.70;99.90;;;27.73;52.45;100399.41;6166005;23;20028;-86
2021/08/15 08:59:35;;;;;;;8.75;4.45;;;25.90;99.90;;;27.44;51.81;100410.63;6187842;23;20013;-87
2021/08/15 09:02:01;;;;;;;7.72;3.67;;;25.90;99.90;;;27.05;53.34;100418.09;6165853;23;20457;-87
2021/08/15 09:04:28;;;;;;;9.95;3.88;;;25.50;99.90;;;26.37;54.38;100414.44;6190815;23;20005;-84
2021/08/15 09:06:54;;;;;;;6.97;3.45;;;25.20;99.90;;;26.03;55.29;100414.59;6193103;23;20016;-85
2021/08/15 09:09:21;;;;;;;6.78;3.70;;;24.80;99.90;;;25.84;56.42;100413.69;6165881;23;20095;-88
2021/08/15 09:11:50;;;;;;;10.25;4.57;;;24.60;99.90;;;26.12;56.49;100408.91;6164802;23;20016;-85
2021/08/15 09:14:25;;;;;;;5.60;3.40;;;24.60;99.90;;;26.64;54.55;100405.91;6172479;23;20013;-83
2021/08/15 09:17:03;;;;;;;8.13;3.47;;;24.80;99.90;;;27.13;53.55;100405.03;6194719;23;20031;-84
2021/08/15 09:19:47;;;;;;;9.10;3.60;;;25.20;99.90;;;27.18;52.62;100410.13;6191079;23;20005;-84
2021/08/15 09:22:20;;;;;;;7.47;3.13;;;25.60;99.90;;;28.10;51.35;100415.25;6193019;23;20139;-86
2021/08/15 09:24:59;;;;;;;5.90;3.30;;;26.20;99.90;;;28.26;50.30;100402.59;6191767;23;20009;-85
2021/08/15 09:27:44;;;;;;;7.50;3.22;;;26.50;99.90;;;28.51;51.19;100405.00;6194827;23;20486;-86
2021/08/15 09:30:32;;;;;;;6.68;3.00;;;26.60;99.90;;;28.12;49.35;100406.97;6165743;23;20009;-86
2021/08/15 09:33:07;;;;;;;7.50;3.63;;;26.50;99.90;;;27.72;51.36;100401.47;6193126;23;20009;-87
2021/08/15 09:35:41;;;;;;;9.37;2.97;;;26.20;99.90;;;27.35;51.82;100397.06;6191469;23;20005;-84
2021/08/15 09:38:19;;;;;;;5.15;3.13;;;26.00;99.90;;;27.50;53.11;100394.34;6189657;23;20242;-86
2021/08/15 09:40:53;;;;;;;8.30;3.38;;;25.90;99.90;;;27.33;54.11;100398.78;6189595;23;20020;-85
2021/08/15 09:43:27;;;;;;;6.07;3.03;;;25.80;99.90;;;27.09;53.65;100396.59;6190331;23;20443;-86
2021/08/15 09:46:05;;;;;;;5.43;3.05;;;25.60;99.90;;;26.82;53.63;100399.44;6165914;23;20083;-87
2021/08/15 09:48:39;;;;;;;6.57;3.20;;;25.60;99.90;;;26.96;52.96;100390.22;6165830;23;20009;-88
2021/08/15 09:51:22;;;;;;;5.90;3.00;;;25.50;99.90;;;27.20;52.28;100402.63;6189794;23;20309;-86
2021/08/15 09:53:53;;;;;;;6.10;2.67;;;25.60;99.90;;;27.21;52.03;100391.97;6191546;23;20001;-85
2021/08/15 09:56:41;;;;;;;5.63;2.95;;;25.60;99.90;;;26.97;52.87;100385.28;6164306;23;20064;-86
2021/08/15 09:59:19;;;;;;;5.60;2.97;;;25.60;99.90;;;27.01;52.24;100388.78;6189072;23;20435;-86
2021/08/15 10:01:52;;;;;;;5.82;2.60;;;25.50;99.90;;;26.99;52.22;100386.41;6164702;23;20068;-89
2021/08/15 10:04:21;;;;;;;6.28;2.90;;;25.40;99.90;;;26.79;52.10;100385.22;6188937;23;20324;-87
2021/08/15 10:06:54;;;;;;;6.78;2.75;;;25.30;99.90;;;26.67;52.34;100382.06;6164484;23;20005;-87
2021/08/15 10:09:24;;;;;;;5.90;2.50;;;25.30;99.90;;;26.84;53.00;100393.25;6191141;23;20494;-89